Flight Track Log - Related Links

Times and Time Zones

All times are in EDT time to prevent confusion due to time zone crossing. See the ASQ4283 flight status page for this flight to view local times or setup timezone preferences in your user account.

Time Position Orientation Groundspeed Altitude Reporting Facility
EDT Latitude Longitude Course Direction KTS MPH feet Rate Location/Type
Tue 08:21:13 AM 41.9167 -87.9167 169° South 187 215 2,600  Level Chicago TRACON
Tue 08:22:13 AM 41.8667 -87.8833 154° Southeast 204 235 4,600 1,540 Climbing Chicago TRACON
Tue 08:23:00 AM 41.7186 -87.6695 157° South  Level Estimated
Tue 08:23:06 AM 41.8297 -87.8481 145° Southeast 211 243 5,500  Level Chicago Center
Tue 08:24:00 AM 41.6309 -87.5909 156° South  Level Estimated
Tue 08:24:08 AM 41.7611 -87.8008 153° Southeast 267 307 7,100  Level Chicago Center
Tue 08:25:00 AM 41.5253 -87.5865 178° South  Level FlightAware
Tue 08:25:10 AM 41.6883 -87.7519 153° Southeast 289 333 9,000  Level Chicago Center
Tue 08:26:00 AM 41.4379 -87.5074 169° South  Level Estimated
Tue 08:26:12 AM 41.6153 -87.7019 153° Southeast 295 339 10,800  Level Chicago Center
Tue 08:27:14 AM 41.5222 -87.6378 153° Southeast 311 358 12,600 1,161 Climbing Chicago Center
Tue 08:28:16 AM 41.4394 -87.5817 153° Southeast 328 377 13,200 726 Climbing Chicago Center
Tue 08:29:18 AM 41.3386 -87.5583 170° South 364 419 14,100 919 Climbing Chicago Center
Tue 08:30:20 AM 41.2350 -87.5394 172° South 372 428 15,100 968 Climbing Chicago Center
Tue 08:31:22 AM 41.1328 -87.5158 170° South 372 428 16,100 1,016 Climbing Chicago Center
Tue 08:32:24 AM 41.0286 -87.4869 168° South 381 438 17,200 1,065 Climbing Chicago Center
Tue 08:33:26 AM 40.9056 -87.4539 169° South 378 435 18,300 1,016 Climbing Chicago Center
Tue 08:34:28 AM 40.8003 -87.4275 169° South 383 441 19,300 968 Climbing Chicago Center
Tue 08:35:30 AM 40.6947 -87.3997 169° South 387 445 20,300 968 Climbing Chicago Center
Tue 08:36:32 AM 40.5892 -87.3717 169° South 388 447 21,300 1,016 Climbing Chicago Center
Tue 08:37:34 AM 40.4833 -87.3450 169° South 387 445 22,400 1,016 Climbing Chicago Center
Tue 08:38:36 AM 40.3800 -87.3028 163° South 392 451 23,400 1,258 Climbing Chicago Center
Tue 08:39:38 AM 40.2564 -87.2444 160° South 395 455 25,000 1,403 Climbing Chicago Center
Tue 08:40:40 AM 40.1614 -87.1994 160° South 374 430 26,300 1,041 Climbing Chicago Center
Tue 08:41:39 AM 40.0642 -87.1539 160° South 370 426 27,100 744 Climbing Indianapolis Center
Tue 08:42:41 AM 39.9656 -87.1017 158° South 382 440 27,800 677 Climbing Indianapolis Center
Tue 08:43:43 AM 39.8733 -87.0236 147° Southeast 398 458 28,500 677 Climbing Indianapolis Center
Tue 08:44:45 AM 39.7825 -86.9444 146° Southeast 395 455 29,200 774 Climbing Indianapolis Center
Tue 08:45:47 AM 39.6867 -86.8672 148° Southeast 406 467 30,100 1,016 Climbing Indianapolis Center
Tue 08:46:49 AM 39.5742 -86.7736 147° Southeast 405 466 31,300 1,024 Climbing Indianapolis Center
Tue 08:47:50 AM 39.4817 -86.6950 147° Southeast 403 464 32,200 829 Climbing Indianapolis Center
Tue 08:48:52 AM 39.3869 -86.6178 148° Southeast 407 468 33,000 774 Climbing Indianapolis Center
Tue 08:49:54 AM 39.2919 -86.5383 147° Southeast 410 472 33,800 774 Climbing Indianapolis Center
Tue 08:50:56 AM 39.1956 -86.4583 147° Southeast 414 476 34,600 581 Climbing Indianapolis Center
Tue 08:51:58 AM 39.0775 -86.3625 148° Southeast 421 484 35,000 195 Climbing Indianapolis Center
Tue 08:52:59 AM 38.9739 -86.2778 148° Southeast 438 504 35,000  Level Indianapolis Center
Tue 08:54:01 AM 38.8725 -86.1944 147° Southeast 458 527 35,000  Level Indianapolis Center
Tue 08:55:03 AM 38.7600 -86.1039 148° Southeast 470 541 35,000  Level Indianapolis Center
Tue 08:56:05 AM 38.6239 -85.9939 148° Southeast 476 548 35,000  Level Indianapolis Center
Tue 08:57:07 AM 38.5114 -85.9036 148° Southeast 476 548 35,000  Level Indianapolis Center
Tue 08:58:08 AM 38.4000 -85.8142 148° Southeast 472 543 35,000  Level Indianapolis Center
Tue 08:59:10 AM 38.2892 -85.7256 148° Southeast 469 540 35,000  Level Indianapolis Center
Tue 09:00:12 AM 38.1772 -85.6367 148° Southeast 471 542 35,000  Level Indianapolis Center
Tue 09:01:14 AM 38.0717 -85.5364 143° Southeast 473 544 35,000  Level Indianapolis Center
Tue 09:02:16 AM 37.9850 -85.4128 132° Southeast 468 539 35,000  Level Indianapolis Center
Tue 09:03:18 AM 37.8972 -85.2894 132° Southeast 470 541 35,000  Level Indianapolis Center
Tue 09:04:20 AM 37.8019 -85.1569 132° Southeast 467 537 35,000  Level Indianapolis Center
Tue 09:05:22 AM 37.7142 -85.0350 132° Southeast 469 540 35,000  Level Indianapolis Center
Tue 09:06:24 AM 37.6108 -84.8936 133° Southeast 469 540 35,000  Level Indianapolis Center
Tue 09:07:25 AM 37.5231 -84.7739 133° Southeast 467 537 35,000  Level Indianapolis Center
Tue 09:08:27 AM 37.4350 -84.6531 133° Southeast 468 539 35,000  Level Indianapolis Center
Tue 09:09:29 AM 37.3467 -84.5342 133° Southeast 467 537 35,000 -48 Level Indianapolis Center
Tue 09:10:31 AM 37.2575 -84.4144 133° Southeast 468 539 34,900 -581 Descending Indianapolis Center
Tue 09:11:33 AM 37.1550 -84.2744 133° Southeast 468 539 33,800 -1,161 Descending Indianapolis Center
Tue 09:12:35 AM 37.0675 -84.1569 133° Southeast 465 535 32,500 -1,500 Descending Indianapolis Center
Tue 09:13:37 AM 36.9811 -84.0389 132° Southeast 461 531 30,700 -2,177 Descending Indianapolis Center
Tue 09:14:39 AM 36.8928 -83.9144 132° Southeast 474 545 28,000 -2,565 Descending Indianapolis Center
Tue 09:15:41 AM 36.8053 -83.7939 132° Southeast 473 544 25,400 -1,935 Descending Indianapolis Center
Tue 09:16:43 AM 36.7058 -83.6578 132° Southeast 461 531 24,000 -677 Descending Indianapolis Center
Tue 09:17:45 AM 36.6219 -83.5408 132° Southeast 456 525 24,000  Level Indianapolis Center
Tue 09:18:47 AM 36.5378 -83.4247 132° Southeast 455 524 24,000  Level Indianapolis Center
Tue 09:19:50 AM 36.4531 -83.3086 132° Southeast 455 524 24,000  Level Indianapolis Center
Tue 09:20:52 AM 36.3678 -83.1933 133° Southeast 457 526 24,000  Level Indianapolis Center
Tue 09:21:36 AM 36.2903 -83.0933 134° Southeast 457 526 24,000  Level Atlanta Center
Tue 09:22:36 AM 36.2039 -82.9733 132° Southeast 462 532 24,000  Level Atlanta Center
Tue 09:23:36 AM 36.1172 -82.8564 133° Southeast 462 532 24,000  Level Atlanta Center
Tue 09:24:36 AM 36.0306 -82.7394 132° Southeast 462 532 24,000  Level Atlanta Center
Tue 09:25:36 AM 35.9253 -82.6514 146° Southeast 455 524 24,000  Level Atlanta Center
Tue 09:26:36 AM 35.8158 -82.5739 150° Southeast 460 529 24,000 -1,050 Level Atlanta Center
Tue 09:27:36 AM 35.7192 -82.5042 150° Southeast 458 527 21,900 -2,450 Descending Atlanta Center
Tue 09:28:36 AM 35.6200 -82.4267 148° Southeast 437 503 19,100 -2,650 Descending Atlanta Center
Tue 09:29:36 AM 35.5211 -82.3547 149° Southeast 420 483 16,600 -2,650 Descending Atlanta Center
Tue 09:30:36 AM 35.4200 -82.2828 150° Southeast 402 463 13,800 -2,600 Descending Atlanta Center
Tue 09:31:36 AM 35.3214 -82.2619 170° South 363 418 11,400 -1,750 Descending Atlanta Center
Tue 09:32:36 AM 35.2317 -82.2539 176° South 344 396 10,300 -1,450 Descending Atlanta Center
Tue 09:33:36 AM 35.1503 -82.2453 175° South 311 358 8,500 -1,750 Descending Atlanta Center
Tue 09:34:36 AM 35.0808 -82.2114 158° South 285 328 6,800 -1,600 Descending Atlanta Center
Tue 09:35:36 AM 35.0178 -82.1822 159° South 256 295 5,300 -1,500 Descending Atlanta Center

Login

Don't have an account? Register now (free) for customized features, flight alerts, and more!